Denver International Airport
KDEN : now visible

Airfield :











YOU CAN JOIN US ON...

 
LOGIN :

Register | Disclaimer

   EN    FR    IT 

 









Legend :    VFR   Marginal VFR   IFR   Intensive IFR   Very Intensive IFR
Visi :
Ceiling :
>= 8 km
>= 3000ft
5 to 8 km
1000 to 3000 ft
1500m to 5 km
500 to 1000 ft
800 to 1500m
200 to 500 ft
< 800m
< 200 ft
Symbols :   Thunderstorms  Fog  Heavy snow  Heavy precipitations  Wind > 20 kt







- Airport Elevation : 5431 ft
- IATA code : DEN


KDEN - Denver International

CURRENT METAR :
  • 260353Z 25004KT 10SM FEW130 27/00 A2991 RMK AO2 SLP027 T02720000 $

EXPIRED METARs :
  • 260253Z 18009KT 10SM FEW130 26/01 A2991 RMK AO2 SLP032 T02560011 53006 $
  • 260153Z 01004KT 10SM FEW130 32/00 A2989 RMK AO2 SLP022 T03170000 $

TAF KDEN
Valid from the 26 at 03:00 until the 27 at 06:00 UTC


260308Z 2603/2706 18010KT P6SM SKC
FM260900 34012KT P6SM SKC
FM261100 01012G20KT P6SM SCT015
FM261500 03010KT P6SM SCT025
FM261900 05012KT P6SM SCT050
FM270100 12010KT P6SM FEW060
No reported NOTAMs for that airfield.



MET'MAP, your aeronautical weather chart ! - Copyright ORBIFLY December 2007 - Disclaimer

ORBIFLY MET'MAP TEAM :

Programming & Development : Alexandra Zaïnal
Concept & Development : Baudouin d'Aumeries
Co-Development & Prog : Marc-Olivier Méhu
Technical & hardware support : Manuel Goepfert

Contact : metmap@orbifly.com




SOURCES & CREDITS :

   NOAA       Earth
Advisory